createdAt,value
2016-08-07T00:00:17.270Z,1020.93
2016-08-07T00:01:17.296Z,1020.93
2016-08-07T00:02:17.320Z,1020.95
2016-08-07T00:03:17.348Z,1020.95
2016-08-07T00:04:17.372Z,1020.96
2016-08-07T00:05:17.396Z,1020.94
2016-08-07T00:06:17.421Z,1020.95
2016-08-07T00:07:17.448Z,1020.94
2016-08-07T00:08:17.475Z,1020.95
2016-08-07T00:09:17.499Z,1020.93
2016-08-07T00:10:17.524Z,1020.98
2016-08-07T00:11:17.549Z,1020.97
2016-08-07T00:12:17.575Z,1020.94
2016-08-07T00:13:17.601Z,1020.97
2016-08-07T00:14:17.628Z,1020.97
2016-08-07T00:15:17.650Z,1020.96
2016-08-07T00:16:17.675Z,1020.98
2016-08-07T00:17:17.703Z,1020.96
2016-08-07T00:18:17.726Z,1020.97
2016-08-07T00:19:17.753Z,1020.99
2016-08-07T00:21:17.802Z,1020.97
2016-08-07T00:22:17.830Z,1020.98
2016-08-07T00:23:17.852Z,1020.97
2016-08-07T00:24:17.879Z,1021.02
2016-08-07T00:25:17.904Z,1020.96
2016-08-07T00:26:17.931Z,1020.98
2016-08-07T00:27:17.955Z,1020.99
2016-08-07T00:28:17.980Z,1021
2016-08-07T00:29:18.007Z,1021
2016-08-07T00:30:18.030Z,1020.99
2016-08-07T00:31:18.059Z,1020.97
2016-08-07T00:32:18.081Z,1021.01
2016-08-07T00:33:18.108Z,1020.99
2016-08-07T00:34:18.133Z,1021.04
2016-08-07T00:35:18.158Z,1020.99
2016-08-07T00:37:18.224Z,1021.03
2016-08-07T00:38:18.235Z,1020.98
2016-08-07T00:39:18.259Z,1021.01
2016-08-07T00:40:18.285Z,1021.03
2016-08-07T00:41:18.310Z,1021.03
2016-08-07T00:42:18.336Z,1020.98
2016-08-07T00:43:18.362Z,1021
2016-08-07T00:44:18.386Z,1020.99
2016-08-07T00:45:18.410Z,1020.99
2016-08-07T00:46:18.434Z,1021.01
2016-08-07T00:47:18.462Z,1021.02
2016-08-07T00:48:18.485Z,1021.06
2016-08-07T00:49:18.510Z,1021.04
2016-08-07T00:50:18.535Z,1021.01
2016-08-07T00:51:18.563Z,1021.01
2016-08-07T00:53:18.611Z,1021.01
2016-08-07T00:54:18.635Z,1020.96
2016-08-07T00:55:18.662Z,1020.98
2016-08-07T00:56:18.689Z,1021
2016-08-07T00:57:18.712Z,1020.99
2016-08-07T00:58:18.740Z,1021.01
2016-08-07T00:59:18.763Z,1020.96
2016-08-07T01:00:18.787Z,1021.06
2016-08-07T01:01:18.813Z,1021.04
2016-08-07T01:02:18.850Z,1021.04
2016-08-07T01:03:18.863Z,1021.06
2016-08-07T01:04:18.889Z,1021.04
2016-08-07T01:05:18.915Z,1021.02
2016-08-07T01:06:18.941Z,1020.97
2016-08-07T01:07:18.966Z,1020.96
2016-08-07T01:09:19.014Z,1020.91
2016-08-07T01:10:19.042Z,1020.9
2016-08-07T01:11:19.066Z,1020.92
2016-08-07T01:12:19.090Z,1020.93
2016-08-07T01:13:19.116Z,1020.96
2016-08-07T01:14:19.140Z,1020.94
2016-08-07T01:15:19.167Z,1020.97
2016-08-07T01:16:19.191Z,1021
2016-08-07T01:17:19.217Z,1021
2016-08-07T01:18:19.244Z,1020.94
2016-08-07T01:19:19.268Z,1020.92
2016-08-07T01:20:19.292Z,1020.96
2016-08-07T01:21:19.316Z,1020.93
2016-08-07T01:22:19.342Z,1020.91
2016-08-07T01:24:19.395Z,1020.89
2016-08-07T01:25:19.418Z,1020.88
2016-08-07T01:26:19.444Z,1020.87
2016-08-07T01:27:19.468Z,1020.87
2016-08-07T01:28:19.494Z,1020.86
2016-08-07T01:29:19.524Z,1020.92
2016-08-07T01:30:19.544Z,1020.94
2016-08-07T01:31:19.596Z,1020.88
2016-08-07T01:32:19.597Z,1020.89
2016-08-07T01:33:19.622Z,1020.91
2016-08-07T01:34:19.648Z,1020.93
2016-08-07T01:35:19.720Z,1020.92
2016-08-07T01:37:19.723Z,1021.01
2016-08-07T01:38:19.748Z,1020.97
2016-08-07T01:39:19.774Z,1020.97
2016-08-07T01:40:19.796Z,1020.95
2016-08-07T01:41:19.823Z,1020.92
2016-08-07T01:42:19.848Z,1020.9
2016-08-07T01:43:20.753Z,1020.91
2016-08-07T01:44:19.898Z,1020.94
2016-08-07T01:45:19.922Z,1020.95
2016-08-07T01:46:19.949Z,1020.92
2016-08-07T01:47:19.974Z,1020.97
2016-08-07T01:48:19.999Z,1020.98
2016-08-07T01:49:20.023Z,1020.95
2016-08-07T01:50:20.056Z,1020.92
2016-08-07T01:52:20.098Z,1020.87
2016-08-07T01:53:20.129Z,1020.87
2016-08-07T01:54:20.166Z,1020.87
2016-08-07T01:56:20.200Z,1020.87
2016-08-07T01:57:20.225Z,1020.84
2016-08-07T01:58:20.247Z,1020.82
2016-08-07T01:59:20.276Z,1020.79
2016-08-07T02:00:20.391Z,1020.78
2016-08-07T02:01:20.324Z,1020.78
2016-08-07T02:02:20.349Z,1020.79
2016-08-07T02:03:20.375Z,1020.83
2016-08-07T02:04:20.399Z,1020.8
2016-08-07T02:05:20.425Z,1020.83
2016-08-07T02:07:20.475Z,1020.83
2016-08-07T02:08:20.500Z,1020.85
2016-08-07T02:09:20.525Z,1020.84
2016-08-07T02:10:21.107Z,1020.86
2016-08-07T02:12:20.598Z,1020.88
2016-08-07T02:13:20.774Z,1020.9
2016-08-07T02:14:22.579Z,1020.91
2016-08-07T02:15:20.679Z,1020.91
2016-08-07T02:16:20.701Z,1020.93
2016-08-07T02:17:20.727Z,1020.91
2016-08-07T02:18:20.761Z,1020.88
2016-08-07T02:19:20.774Z,1020.87
2016-08-07T02:20:20.797Z,1020.86
2016-08-07T02:22:20.850Z,1020.83
2016-08-07T02:23:20.875Z,1020.85
2016-08-07T02:24:20.900Z,1020.89
2016-08-07T02:25:20.922Z,1020.89
2016-08-07T02:26:20.948Z,1020.88
2016-08-07T02:28:20.997Z,1020.87
2016-08-07T02:29:21.024Z,1020.88
2016-08-07T02:30:21.047Z,1020.9
2016-08-07T02:31:21.072Z,1020.91
2016-08-07T02:32:21.097Z,1020.94
2016-08-07T02:33:21.122Z,1020.93
2016-08-07T02:34:21.148Z,1020.94
2016-08-07T02:35:21.176Z,1020.94
2016-08-07T02:37:21.228Z,1020.97
2016-08-07T02:38:21.246Z,1020.99
2016-08-07T02:39:21.271Z,1020.94
2016-08-07T02:40:21.297Z,1020.93
2016-08-07T02:41:21.322Z,1020.94
2016-08-07T02:42:21.349Z,1020.91
2016-08-07T02:44:21.396Z,1020.98
2016-08-07T02:45:21.424Z,1020.93
2016-08-07T02:46:21.445Z,1020.93
2016-08-07T02:47:21.470Z,1020.92
2016-08-07T02:48:21.499Z,1020.94
2016-08-07T02:49:21.522Z,1020.95
2016-08-07T02:50:21.553Z,1020.94
2016-08-07T02:51:21.585Z,1020.91
2016-08-07T02:52:21.596Z,1020.94
2016-08-07T02:53:21.621Z,1020.94
2016-08-07T02:54:21.647Z,1020.97
2016-08-07T02:55:21.672Z,1020.98
2016-08-07T02:56:21.695Z,1020.95
2016-08-07T02:57:21.723Z,1020.98
2016-08-07T02:59:21.773Z,1020.96
2016-08-07T03:00:21.797Z,1020.93
2016-08-07T03:01:21.821Z,1020.99
2016-08-07T03:02:21.847Z,1020.97
2016-08-07T03:03:21.874Z,1021.01
2016-08-07T03:04:21.894Z,1021.02
2016-08-07T03:05:21.920Z,1021.05
2016-08-07T03:06:21.948Z,1021.06
2016-08-07T03:07:21.970Z,1021.06
2016-08-07T03:08:21.998Z,1021.09
2016-08-07T03:09:22.022Z,1021.12
2016-08-07T03:10:22.047Z,1021.06
2016-08-07T03:11:22.071Z,1021.09
2016-08-07T03:12:22.097Z,1021.07
2016-08-07T03:13:22.122Z,1021.03
2016-08-07T03:14:22.147Z,1021.04
2016-08-07T03:15:22.173Z,1021.02
2016-08-07T03:16:22.197Z,1021.02
2016-08-07T03:17:22.221Z,1021.06
2016-08-07T03:18:22.246Z,1021.04
2016-08-07T03:19:22.272Z,1021.03
2016-08-07T03:20:22.295Z,1021.05
2016-08-07T03:21:22.322Z,1020.98
2016-08-07T03:22:22.345Z,1021.01
2016-08-07T03:23:22.370Z,1020.99
2016-08-07T03:24:22.396Z,1020.95
2016-08-07T03:25:22.421Z,1020.98
2016-08-07T03:26:22.446Z,1021
2016-08-07T03:27:22.470Z,1020.97
2016-08-07T03:28:22.497Z,1020.96
2016-08-07T03:29:22.517Z,1020.97
2016-08-07T03:31:22.570Z,1021.04
2016-08-07T03:32:22.595Z,1021.06
2016-08-07T03:33:22.618Z,1021.05
2016-08-07T03:34:22.649Z,1021.06
2016-08-07T03:35:22.681Z,1021.08
2016-08-07T03:36:23.228Z,1021.07
2016-08-07T03:37:22.717Z,1021
2016-08-07T03:38:22.745Z,1021.08
2016-08-07T03:39:22.767Z,1021.04
2016-08-07T03:40:22.792Z,1021.06
2016-08-07T03:41:22.816Z,1021.03
2016-08-07T03:42:22.854Z,1021.06
2016-08-07T03:43:22.871Z,1021.11
2016-08-07T03:44:22.892Z,1021.11
2016-08-07T03:45:22.916Z,1021.14
2016-08-07T03:47:22.965Z,1021.12
2016-08-07T03:48:22.989Z,1021.12
2016-08-07T03:49:23.013Z,1021.15
2016-08-07T03:50:23.041Z,1021.16
2016-08-07T03:51:23.063Z,1021.13
2016-08-07T03:52:23.090Z,1021.13
2016-08-07T03:53:23.113Z,1021.15
2016-08-07T03:54:23.151Z,1021.13
2016-08-07T03:55:23.165Z,1021.12
2016-08-07T03:56:23.187Z,1021.11
2016-08-07T03:57:23.214Z,1021.13
2016-08-07T03:58:23.239Z,1021.12
2016-08-07T03:59:23.263Z,1021.12
2016-08-07T04:00:23.287Z,1021.14
2016-08-07T04:01:23.314Z,1021.17
2016-08-07T04:03:23.361Z,1021.19
2016-08-07T04:04:23.386Z,1021.19
2016-08-07T04:05:23.413Z,1021.17
2016-08-07T04:06:23.437Z,1021.22
2016-08-07T04:07:23.464Z,1021.23
2016-08-07T04:08:23.489Z,1021.24
2016-08-07T04:09:23.513Z,1021.24
2016-08-07T04:10:23.541Z,1021.3
2016-08-07T04:11:23.561Z,1021.33
2016-08-07T04:12:23.586Z,1021.39
2016-08-07T04:13:23.610Z,1021.39
2016-08-07T04:14:23.639Z,1021.39
2016-08-07T04:15:23.660Z,1021.37
2016-08-07T04:16:23.686Z,1021.42
2016-08-07T04:17:23.709Z,1021.42
2016-08-07T04:19:23.764Z,1021.46
2016-08-07T04:20:23.785Z,1021.46
2016-08-07T04:21:23.812Z,1021.44
2016-08-07T04:22:23.837Z,1021.44
2016-08-07T04:23:23.863Z,1021.45
2016-08-07T04:24:23.887Z,1021.46
2016-08-07T04:25:23.910Z,1021.45
2016-08-07T04:26:23.939Z,1021.45
2016-08-07T04:27:23.968Z,1021.46
2016-08-07T04:28:23.985Z,1021.45
2016-08-07T04:29:24.010Z,1021.43
2016-08-07T04:30:24.036Z,1021.43
2016-08-07T04:31:24.063Z,1021.38
2016-08-07T04:32:24.086Z,1021.39
2016-08-07T04:34:24.147Z,1021.42
2016-08-07T04:35:24.163Z,1021.38
2016-08-07T04:36:24.188Z,1021.39
2016-08-07T04:37:24.215Z,1021.37
2016-08-07T04:38:24.239Z,1021.36
2016-08-07T04:39:24.262Z,1021.35
2016-08-07T04:40:24.289Z,1021.4
2016-08-07T04:41:24.315Z,1021.39
2016-08-07T04:42:24.341Z,1021.32
2016-08-07T04:43:24.366Z,1021.37
2016-08-07T04:44:24.391Z,1021.37
2016-08-07T04:45:24.415Z,1021.32
2016-08-07T04:46:24.442Z,1021.31
2016-08-07T04:47:24.468Z,1021.33
2016-08-07T04:48:24.544Z,1021.37
2016-08-07T04:49:24.519Z,1021.39
2016-08-07T04:50:24.543Z,1021.39
2016-08-07T04:51:24.570Z,1021.4
2016-08-07T04:52:24.593Z,1021.44
2016-08-07T04:53:24.621Z,1021.44
2016-08-07T04:54:24.650Z,1021.46
2016-08-07T04:55:24.669Z,1021.45
2016-08-07T04:56:24.699Z,1021.45
2016-08-07T04:57:24.722Z,1021.47
2016-08-07T04:58:24.745Z,1021.54
2016-08-07T04:59:24.774Z,1021.66
2016-08-07T05:00:24.798Z,1021.48
2016-08-07T05:01:24.823Z,1021.75
2016-08-07T05:02:24.851Z,1021.63
2016-08-07T05:03:24.879Z,1021.44
2016-08-07T05:04:24.900Z,1021.56
2016-08-07T05:06:24.956Z,1021.45
2016-08-07T05:07:24.980Z,1021.52
2016-08-07T05:08:25.009Z,1021.52
2016-08-07T05:09:25.036Z,1021.54
2016-08-07T05:10:25.061Z,1021.62
2016-08-07T05:11:25.087Z,1021.83
2016-08-07T05:12:25.113Z,1021.91
2016-08-07T05:13:25.141Z,1021.93
2016-08-07T05:14:25.169Z,1021.88
2016-08-07T05:15:25.196Z,1021.7
2016-08-07T05:16:25.225Z,1021.64
2016-08-07T05:17:25.252Z,1021.67
2016-08-07T05:18:25.280Z,1021.62
2016-08-07T05:19:25.311Z,1021.69
2016-08-07T05:20:25.340Z,1021.61
2016-08-07T05:22:25.395Z,1021.6
2016-08-07T05:23:25.435Z,1021.58
2016-08-07T05:24:25.450Z,1021.58
2016-08-07T05:25:25.482Z,1021.58
2016-08-07T05:26:25.509Z,1021.59
2016-08-07T05:27:25.535Z,1021.56
2016-08-07T05:28:25.564Z,1021.81
2016-08-07T05:29:25.591Z,1021.85
2016-08-07T05:30:25.619Z,1021.61
2016-08-07T05:31:25.646Z,1021.66
2016-08-07T05:32:25.678Z,1021.7
2016-08-07T05:33:25.703Z,1022.01
2016-08-07T05:34:25.730Z,1022.03
2016-08-07T05:35:25.759Z,1022.04
2016-08-07T05:36:25.792Z,1022.08
2016-08-07T05:38:25.845Z,1022.14
2016-08-07T05:39:25.873Z,1022.21
2016-08-07T05:40:25.906Z,1022.22
2016-08-07T05:41:25.934Z,1022.15
2016-08-07T05:42:25.965Z,1022.25
2016-08-07T05:43:25.998Z,1022.24
2016-08-07T05:44:26.031Z,1021.86
2016-08-07T05:45:26.061Z,1021.87
2016-08-07T05:46:26.092Z,1022.28
2016-08-07T05:47:26.129Z,1022.14
2016-08-07T05:48:26.155Z,1022.27
2016-08-07T05:49:26.187Z,1022.35
2016-08-07T05:50:26.221Z,1022.41
2016-08-07T05:51:26.255Z,1022.45
2016-08-07T05:52:26.287Z,1022.47
2016-08-07T05:54:26.350Z,1022.32
2016-08-07T05:55:26.387Z,1022.48
2016-08-07T05:56:26.417Z,1021.89
2016-08-07T05:57:26.453Z,1022.46
2016-08-07T05:58:26.486Z,1022.51
2016-08-07T05:59:26.519Z,1022.46
2016-08-07T06:00:26.602Z,1022.45
2016-08-07T06:01:26.587Z,1022.51
2016-08-07T06:02:26.626Z,1022.48
2016-08-07T06:03:26.657Z,1022.51
2016-08-07T06:04:26.690Z,1022.54
2016-08-07T06:05:27.115Z,1022.51
2016-08-07T06:06:26.760Z,1022.57
2016-08-07T06:07:26.795Z,1022.56
2016-08-07T06:09:26.866Z,1022.63
2016-08-07T06:10:26.894Z,1022.65
2016-08-07T06:11:26.930Z,1022.66
2016-08-07T06:12:26.965Z,1022.68
2016-08-07T06:13:27.596Z,1022.72
2016-08-07T06:14:27.037Z,1022.71
2016-08-07T06:15:27.071Z,1022.8
2016-08-07T06:16:27.109Z,1022.98
2016-08-07T06:17:27.140Z,1023.1
2016-08-07T06:18:27.175Z,1023.14
2016-08-07T06:19:27.210Z,1023.17
2016-08-07T06:20:27.245Z,1023.16
2016-08-07T06:21:27.281Z,1023.14
2016-08-07T06:23:27.356Z,1023.1
2016-08-07T06:24:27.387Z,1023.08
2016-08-07T06:25:27.424Z,1023.09
2016-08-07T06:26:27.507Z,1023.09
2016-08-07T06:27:27.496Z,1023.11
2016-08-07T06:28:27.528Z,1023.17
2016-08-07T06:29:27.566Z,1023.15
2016-08-07T06:30:27.600Z,1023.21
2016-08-07T06:31:27.636Z,1023.25
2016-08-07T06:32:27.675Z,1023.27
2016-08-07T06:33:27.707Z,1023.31
2016-08-07T06:34:27.754Z,1023.46
2016-08-07T06:35:27.782Z,1023.47
2016-08-07T06:36:27.814Z,1023.53
2016-08-07T06:38:27.895Z,1023.6
2016-08-07T06:39:27.922Z,1023.74
2016-08-07T06:41:27.995Z,1023.76
2016-08-07T06:42:28.032Z,1023.79
2016-08-07T06:43:28.065Z,1023.86
2016-08-07T06:44:28.103Z,1023.95
2016-08-07T06:45:28.139Z,1023.99
2016-08-07T06:46:28.176Z,1024.01
2016-08-07T06:47:28.211Z,1024.11
2016-08-07T06:48:28.248Z,1024.14
2016-08-07T06:49:28.288Z,1024.13
2016-08-07T06:50:28.328Z,1024.2
2016-08-07T06:51:28.356Z,1024.18
2016-08-07T06:53:28.429Z,1024.06
2016-08-07T06:54:28.465Z,1024.21
2016-08-07T06:55:28.551Z,1024.2
2016-08-07T06:57:28.582Z,1024.17
2016-08-07T06:58:28.659Z,1024.04
2016-08-07T06:59:28.649Z,1023.93
2016-08-07T07:00:28.683Z,1023.94
2016-08-07T07:01:28.735Z,1023.98
2016-08-07T07:02:28.755Z,1024.01
2016-08-07T07:03:28.794Z,1024.01
2016-08-07T07:04:28.831Z,1023.96
2016-08-07T07:05:28.864Z,1023.87
2016-08-07T07:06:28.904Z,1023.81
2016-08-07T07:08:29.004Z,1023.87
2016-08-07T07:09:29.013Z,1023.86
2016-08-07T07:10:29.050Z,1023.77
2016-08-07T07:11:29.084Z,1023.77
2016-08-07T07:13:29.159Z,1023.68
2016-08-07T07:14:29.196Z,1023.7
2016-08-07T07:15:29.233Z,1023.68
2016-08-07T07:16:29.268Z,1023.66
2016-08-07T07:17:29.304Z,1023.64
2016-08-07T07:18:29.341Z,1023.6
2016-08-07T07:19:29.380Z,1023.61
2016-08-07T07:20:29.414Z,1022.52
2016-08-07T07:21:29.452Z,1023.6
2016-08-07T07:23:29.526Z,1023.51
2016-08-07T07:24:29.560Z,1022.36
2016-08-07T07:25:29.598Z,1022.86
2016-08-07T07:26:29.633Z,1022.41
2016-08-07T07:27:29.669Z,1023.59
2016-08-07T07:29:29.743Z,1023.42
2016-08-07T07:30:29.781Z,1022.46
2016-08-07T07:31:29.813Z,1022.4
2016-08-07T07:32:29.851Z,1023.52
2016-08-07T07:33:29.886Z,1023.43
2016-08-07T07:34:29.919Z,1023.39
2016-08-07T07:35:29.955Z,1022.89
2016-08-07T07:36:29.993Z,1023.45
2016-08-07T07:38:30.063Z,1022.58
2016-08-07T07:39:30.100Z,1022.53
2016-08-07T07:40:30.132Z,1023.3
2016-08-07T07:41:30.170Z,1022.44
2016-08-07T07:42:30.203Z,1023.34
2016-08-07T07:44:30.275Z,1023.4
2016-08-07T07:45:30.309Z,1022.35
2016-08-07T07:46:30.347Z,1022.38
2016-08-07T07:47:30.380Z,1023.21
2016-08-07T08:02:25.335Z,1022.99
2016-08-07T08:03:25.370Z,1023.02
2016-08-07T08:04:25.406Z,1022.98
2016-08-07T08:05:25.441Z,1022.9
2016-08-07T08:06:25.472Z,1022.89
2016-08-07T08:07:25.507Z,1022.87
2016-08-07T08:08:25.544Z,1022.88
2016-08-07T08:09:25.578Z,1022.89
2016-08-07T08:10:25.613Z,1022.55
2016-08-07T08:11:25.650Z,1022.85
2016-08-07T08:13:25.720Z,1022.27
2016-08-07T08:14:25.752Z,1022.35
2016-08-07T08:15:25.788Z,1022.35
2016-08-07T08:16:25.820Z,1022.76
2016-08-07T08:17:25.859Z,1022.76
2016-08-07T08:18:25.893Z,1022.74
2016-08-07T08:19:25.925Z,1022.71
2016-08-07T08:20:25.959Z,1022.74
2016-08-07T08:21:25.999Z,1022.7
2016-08-07T08:22:26.030Z,1022.8
2016-08-07T08:23:26.069Z,1022.84
2016-08-07T08:24:26.100Z,1022.86
2016-08-07T08:25:26.134Z,1022.74
2016-08-07T08:26:26.171Z,1023.01
2016-08-07T08:27:26.203Z,1023.21
2016-08-07T08:29:26.275Z,1022.49
2016-08-07T08:30:26.309Z,1022.4
2016-08-07T08:31:26.344Z,1022.4
2016-08-07T08:32:26.377Z,1022.89
2016-08-07T08:33:26.411Z,1022.65
2016-08-07T08:34:26.448Z,1022.38
2016-08-07T08:35:26.482Z,1022.35
2016-08-07T08:36:26.515Z,1022.56
2016-08-07T08:37:26.550Z,1022.97
2016-08-07T08:38:26.582Z,1022.95
2016-08-07T08:39:26.619Z,1022.82
2016-08-07T08:40:26.653Z,1022.86
2016-08-07T08:41:26.685Z,1022.86
2016-08-07T08:42:26.723Z,1022.8
2016-08-07T08:44:26.796Z,1022.39
2016-08-07T08:45:26.825Z,1022.47
2016-08-07T08:46:26.857Z,1022.74
2016-08-07T08:47:26.896Z,1022.48
2016-08-07T08:48:26.928Z,1022.55
2016-08-07T08:49:26.967Z,1022.51
2016-08-07T08:50:26.996Z,1022.49
2016-08-07T08:51:27.030Z,1022.5
2016-08-07T08:52:27.062Z,1022.56
2016-08-07T08:53:27.099Z,1022.52
2016-08-07T08:54:27.134Z,1022.5
2016-08-07T08:55:27.170Z,1022.47
2016-08-07T08:56:27.200Z,1022.43
2016-08-07T08:57:27.236Z,1022.47
2016-08-07T08:58:27.271Z,1022.43
2016-08-07T08:59:27.356Z,1022.4
2016-08-07T09:00:27.344Z,1022.36
2016-08-07T09:01:27.376Z,1022.44
2016-08-07T09:02:27.411Z,1022.24
2016-08-07T09:03:27.446Z,1022.2
2016-08-07T09:04:27.479Z,1022.24
2016-08-07T09:05:27.526Z,1022.22
2016-08-07T09:06:27.548Z,1022.24
2016-08-07T09:07:27.584Z,1022.31
2016-08-07T09:08:27.619Z,1022.37
2016-08-07T09:09:27.656Z,1022.32
2016-08-07T09:10:27.686Z,1022.28
2016-08-07T09:11:27.724Z,1022.29
2016-08-07T09:12:27.753Z,1022.26
2016-08-07T09:13:27.788Z,1022.34
2016-08-07T09:14:27.824Z,1022.35
2016-08-07T09:16:27.891Z,1022.25
2016-08-07T09:17:27.926Z,1022.3
2016-08-07T09:18:27.958Z,1022.28
2016-08-07T09:19:27.992Z,1022.18
2016-08-07T09:20:28.028Z,1022.27
2016-08-07T09:21:28.060Z,1022.23
2016-08-07T09:22:28.093Z,1022.25
2016-08-07T09:23:28.128Z,1022.27
2016-08-07T09:24:28.162Z,1022.26
2016-08-07T09:25:28.196Z,1022.26
2016-08-07T09:26:28.233Z,1022.19
2016-08-07T09:27:28.264Z,1022.18
2016-08-07T09:28:28.298Z,1022.2
2016-08-07T09:29:28.331Z,1022.21
2016-08-07T09:30:28.366Z,1022.2
2016-08-07T09:32:28.435Z,1022.12
2016-08-07T09:33:28.466Z,1022.13
2016-08-07T09:34:28.503Z,1022.2
2016-08-07T09:35:28.536Z,1022.2
2016-08-07T09:36:28.573Z,1022.2
2016-08-07T09:37:28.602Z,1022.18
2016-08-07T09:39:28.672Z,1022.11
2016-08-07T09:40:28.702Z,1022.1
2016-08-07T09:41:28.736Z,1022.12
2016-08-07T09:42:28.772Z,1022.11
2016-08-07T09:43:28.804Z,1022.13
2016-08-07T09:44:28.836Z,1022.17
2016-08-07T09:45:28.870Z,1022.09
2016-08-07T09:46:28.906Z,1022.03
2016-08-07T09:48:28.973Z,1022.02
2016-08-07T09:49:29.005Z,1022
2016-08-07T09:50:29.040Z,1022.04
2016-08-07T09:51:29.070Z,1022.02
2016-08-07T09:52:29.103Z,1022.05
2016-08-07T09:53:29.137Z,1022.04
2016-08-07T09:54:29.171Z,1022.07
2016-08-07T09:55:29.202Z,1022.04
2016-08-07T09:56:29.238Z,1022.1
2016-08-07T09:57:29.269Z,1022.02
2016-08-07T09:58:29.303Z,1022.07
2016-08-07T09:59:29.334Z,1022.07
2016-08-07T10:00:29.369Z,1022.11
2016-08-07T10:01:29.402Z,1022.03
2016-08-07T10:02:29.431Z,1022.02
2016-08-07T10:04:29.500Z,1021.97
2016-08-07T10:05:29.532Z,1021.99
2016-08-07T10:06:29.561Z,1022.04
2016-08-07T10:07:29.596Z,1022.09
2016-08-07T10:08:29.627Z,1022.04
2016-08-07T10:09:29.658Z,1022.03
2016-08-07T10:10:29.696Z,1021.94
2016-08-07T10:11:29.722Z,1021.9
2016-08-07T10:12:29.758Z,1021.91
2016-08-07T10:13:29.787Z,1021.88
2016-08-07T10:14:29.819Z,1021.89
2016-08-07T10:15:29.851Z,1021.89
2016-08-07T10:16:29.886Z,1021.83
2016-08-07T10:17:29.916Z,1021.86
2016-08-07T10:19:29.981Z,1021.89
2016-08-07T10:20:30.013Z,1021.81
2016-08-07T10:21:30.047Z,1021.85
2016-08-07T10:22:30.080Z,1021.84
2016-08-07T10:23:30.110Z,1021.84
2016-08-07T10:24:30.141Z,1021.83
2016-08-07T10:25:30.175Z,1021.84
2016-08-07T10:26:30.211Z,1021.85
2016-08-07T10:27:30.239Z,1021.84
2016-08-07T10:28:30.270Z,1021.85
2016-08-07T10:29:30.301Z,1021.88
2016-08-07T10:30:30.336Z,1021.84
2016-08-07T10:31:30.376Z,1021.86
2016-08-07T10:32:30.399Z,1021.78
2016-08-07T10:33:30.428Z,1021.76
2016-08-07T10:34:30.463Z,1021.7
2016-08-07T10:35:30.494Z,1021.77
2016-08-07T10:36:30.524Z,1021.74
2016-08-07T10:37:30.558Z,1021.72
2016-08-07T10:39:30.621Z,1021.69
2016-08-07T10:40:30.654Z,1021.6
2016-08-07T10:41:30.692Z,1021.6
2016-08-07T10:42:30.714Z,1021.57
2016-08-07T10:43:30.747Z,1021.53
2016-08-07T10:44:30.784Z,1021.51
2016-08-07T10:45:30.812Z,1021.49
2016-08-07T10:46:30.843Z,1021.44
2016-08-07T10:47:30.874Z,1021.48
2016-08-07T10:48:30.907Z,1021.48
2016-08-07T10:49:30.935Z,1021.45
2016-08-07T10:51:30.999Z,1021.49
2016-08-07T10:52:31.031Z,1021.49
2016-08-07T10:54:31.093Z,1021.41
2016-08-07T10:55:31.127Z,1021.38
2016-08-07T10:56:31.159Z,1021.35
2016-08-07T10:57:31.187Z,1021.35
2016-08-07T10:58:31.219Z,1021.34
2016-08-07T10:59:31.252Z,1021.3
2016-08-07T11:00:31.284Z,1021.35
2016-08-07T11:01:31.314Z,1021.33
2016-08-07T11:02:31.348Z,1021.34
2016-08-07T11:03:31.377Z,1021.42
2016-08-07T11:04:31.410Z,1021.37
2016-08-07T11:05:31.440Z,1021.29
2016-08-07T11:07:31.504Z,1021.3
2016-08-07T11:09:31.567Z,1021.37
2016-08-07T11:10:31.600Z,1021.34
2016-08-07T11:11:31.630Z,1021.32
2016-08-07T11:12:31.660Z,1021.31
2016-08-07T11:13:31.693Z,1021.32
2016-08-07T11:14:31.725Z,1021.27
2016-08-07T11:15:31.755Z,1021.33
2016-08-07T11:16:31.787Z,1021.32
2016-08-07T11:17:31.821Z,1021.31
2016-08-07T11:18:31.850Z,1021.34
2016-08-07T11:19:31.884Z,1021.24
2016-08-07T11:20:31.914Z,1021.23
2016-08-07T11:21:31.947Z,1021.18
2016-08-07T11:24:32.038Z,1021.16
2016-08-07T11:25:32.072Z,1021.19
2016-08-07T11:26:32.102Z,1021.12
2016-08-07T11:27:32.136Z,1021.15
2016-08-07T11:28:32.167Z,1021.17
2016-08-07T11:29:32.200Z,1021.19
2016-08-07T11:30:32.229Z,1021.18
2016-08-07T11:31:32.259Z,1021.14
2016-08-07T11:32:32.292Z,1021.14
2016-08-07T11:33:32.326Z,1021.12
2016-08-07T11:34:32.352Z,1021.12
2016-08-07T11:35:32.386Z,1021.11
2016-08-07T11:36:32.425Z,1021.12
2016-08-07T11:37:32.449Z,1021.09
2016-08-07T11:39:32.511Z,1021.11
2016-08-07T11:40:32.542Z,1021.12
2016-08-07T11:41:32.573Z,1021.06
2016-08-07T11:42:32.607Z,1021.05
2016-08-07T11:43:32.638Z,1021.03
2016-08-07T11:44:32.675Z,1020.98
2016-08-07T11:45:32.699Z,1020.95
2016-08-07T11:46:32.732Z,1020.94
2016-08-07T11:47:32.773Z,1020.96
2016-08-07T11:48:32.792Z,1020.91
2016-08-07T11:49:32.826Z,1020.87
2016-08-07T11:50:32.856Z,1020.88
2016-08-07T11:51:32.887Z,1020.83
2016-08-07T11:52:32.922Z,1020.95
2016-08-07T11:54:32.984Z,1020.83
2016-08-07T11:55:33.013Z,1020.8
2016-08-07T11:56:33.048Z,1020.77
2016-08-07T11:57:33.080Z,1020.74
2016-08-07T11:58:33.113Z,1020.75
2016-08-07T11:59:33.191Z,1020.73
2016-08-07T12:00:33.174Z,1020.78
2016-08-07T12:01:33.203Z,1020.72
2016-08-07T12:02:33.237Z,1020.74
2016-08-07T12:03:33.268Z,1020.73
2016-08-07T12:04:33.301Z,1020.71
2016-08-07T12:05:33.329Z,1020.68
2016-08-07T12:06:33.360Z,1020.68
2016-08-07T12:07:33.393Z,1020.7
2016-08-07T12:08:33.423Z,1020.65
2016-08-07T12:09:33.457Z,1020.64
2016-08-07T12:10:33.488Z,1020.57
2016-08-07T12:11:33.518Z,1020.55
2016-08-07T12:12:33.551Z,1020.53
2016-08-07T12:13:33.578Z,1020.62
2016-08-07T12:14:33.610Z,1020.55
2016-08-07T12:15:33.643Z,1020.52
2016-08-07T12:16:33.672Z,1020.52
2016-08-07T12:17:33.702Z,1020.55
2016-08-07T12:18:33.735Z,1020.56
2016-08-07T12:19:33.765Z,1020.56
2016-08-07T12:20:33.796Z,1020.6
2016-08-07T12:21:33.828Z,1020.55
2016-08-07T12:22:33.858Z,1020.53
2016-08-07T12:23:33.889Z,1020.61
2016-08-07T12:24:33.921Z,1020.55
2016-08-07T12:26:33.984Z,1020.52
2016-08-07T12:27:34.012Z,1020.5
2016-08-07T12:28:34.045Z,1020.53
2016-08-07T12:29:34.077Z,1020.45
2016-08-07T12:30:34.107Z,1020.45
2016-08-07T12:31:34.136Z,1020.49
2016-08-07T12:32:34.167Z,1020.52
2016-08-07T12:33:34.199Z,1020.5
2016-08-07T12:34:34.230Z,1020.5
2016-08-07T12:35:34.258Z,1020.5
2016-08-07T12:36:34.291Z,1020.51
2016-08-07T12:37:34.322Z,1020.49
2016-08-07T12:38:34.356Z,1020.49
2016-08-07T12:39:34.380Z,1020.5
2016-08-07T12:40:34.414Z,1020.59
2016-08-07T12:42:34.473Z,1020.44
2016-08-07T12:43:34.504Z,1020.49
2016-08-07T12:44:34.535Z,1020.48
2016-08-07T12:45:34.567Z,1020.47
2016-08-07T12:46:34.598Z,1020.41
2016-08-07T12:47:34.628Z,1020.44
2016-08-07T12:48:34.659Z,1020.48
2016-08-07T12:49:34.690Z,1020.47
2016-08-07T12:50:34.720Z,1020.45
2016-08-07T12:51:34.750Z,1020.47
2016-08-07T12:52:34.780Z,1020.47
2016-08-07T12:53:34.817Z,1020.43
2016-08-07T12:54:34.847Z,1020.54
2016-08-07T12:55:34.874Z,1020.55
2016-08-07T12:56:34.904Z,1020.58
2016-08-07T12:58:34.964Z,1020.53
2016-08-07T12:59:34.994Z,1020.54
2016-08-07T13:00:35.028Z,1020.51
2016-08-07T13:01:35.061Z,1020.5
2016-08-07T13:02:35.088Z,1020.46
2016-08-07T13:03:35.118Z,1020.44
2016-08-07T13:04:35.151Z,1020.48
2016-08-07T13:05:35.178Z,1020.49
2016-08-07T13:06:35.213Z,1020.5
2016-08-07T13:07:35.242Z,1020.47
2016-08-07T13:08:35.272Z,1020.44
2016-08-07T13:09:35.306Z,1020.44
2016-08-07T13:10:35.334Z,1020.43
2016-08-07T13:11:35.366Z,1020.43
2016-08-07T13:12:35.396Z,1020.41
2016-08-07T13:14:35.461Z,1020.36
2016-08-07T13:15:35.493Z,1020.32
2016-08-07T13:16:35.521Z,1020.3
2016-08-07T13:17:35.553Z,1020.28
2016-08-07T13:18:35.586Z,1020.26
2016-08-07T13:19:35.614Z,1020.24
2016-08-07T13:20:35.647Z,1020.21